sensor_id;sensor_type;location;lat;lon;timestamp;temperature;humidity
57088;DHT22;42965;52.846;6.614;2022-07-21T00:01:55;20.10;99.90
57088;DHT22;42965;52.846;6.614;2022-07-21T00:04:21;20.00;99.90
57088;DHT22;42965;52.846;6.614;2022-07-21T00:06:48;20.00;99.90
57088;DHT22;42965;52.846;6.614;2022-07-21T00:09:14;20.00;99.90
57088;DHT22;42965;52.846;6.614;2022-07-21T00:11:40;20.00;99.90
57088;DHT22;42965;52.846;6.614;2022-07-21T00:14:08;20.00;99.90
57088;DHT22;42965;52.846;6.614;2022-07-21T00:16:39;20.00;99.90
57088;DHT22;42965;52.846;6.614;2022-07-21T00:19:05;20.00;99.90
57088;DHT22;42965;52.846;6.614;2022-07-21T00:21:32;19.90;99.90
57088;DHT22;42965;52.846;6.614;2022-07-21T00:23:58;19.90;99.90
57088;DHT22;42965;52.846;6.614;2022-07-21T00:26:24;19.90;99.90
57088;DHT22;42965;52.846;6.614;2022-07-21T00:28:50;19.80;99.90
57088;DHT22;42965;52.846;6.614;2022-07-21T00:31:16;19.80;99.90
57088;DHT22;42965;52.846;6.614;2022-07-21T00:33:42;19.70;99.90
57088;DHT22;42965;52.846;6.614;2022-07-21T00:36:08;19.70;99.90
57088;DHT22;42965;52.846;6.614;2022-07-21T00:38:35;19.60;99.90
57088;DHT22;42965;52.846;6.614;2022-07-21T00:41:01;19.60;99.90
57088;DHT22;42965;52.846;6.614;2022-07-21T00:43:27;19.60;99.90
57088;DHT22;42965;52.846;6.614;2022-07-21T00:45:54;19.50;99.90
57088;DHT22;42965;52.846;6.614;2022-07-21T00:48:20;19.50;99.90
57088;DHT22;42965;52.846;6.614;2022-07-21T00:50:47;19.50;99.90
57088;DHT22;42965;52.846;6.614;2022-07-21T00:53:14;19.40;99.90
57088;DHT22;42965;52.846;6.614;2022-07-21T00:55:42;19.40;99.90
57088;DHT22;42965;52.846;6.614;2022-07-21T00:58:09;19.30;99.90
57088;DHT22;42965;52.846;6.614;2022-07-21T01:00:36;19.30;99.90
57088;DHT22;42965;52.846;6.614;2022-07-21T01:03:02;19.30;99.90
57088;DHT22;42965;52.846;6.614;2022-07-21T01:05:28;19.30;99.90
57088;DHT22;42965;52.846;6.614;2022-07-21T01:07:55;19.30;99.90
57088;DHT22;42965;52.846;6.614;2022-07-21T01:10:23;19.20;99.90
57088;DHT22;42965;52.846;6.614;2022-07-21T01:12:50;19.20;99.90
57088;DHT22;42965;52.846;6.614;2022-07-21T01:15:18;19.20;99.90
57088;DHT22;42965;52.846;6.614;2022-07-21T01:17:45;19.20;99.90
57088;DHT22;42965;52.846;6.614;2022-07-21T01:20:14;19.30;99.90
57088;DHT22;42965;52.846;6.614;2022-07-21T01:22:43;19.30;99.90
57088;DHT22;42965;52.846;6.614;2022-07-21T01:25:10;19.20;99.90
57088;DHT22;42965;52.846;6.614;2022-07-21T01:27:36;19.20;99.90
57088;DHT22;42965;52.846;6.614;2022-07-21T01:30:04;19.20;99.90
57088;DHT22;42965;52.846;6.614;2022-07-21T01:32:33;19.10;99.90
57088;DHT22;42965;52.846;6.614;2022-07-21T01:34:59;19.10;99.90
57088;DHT22;42965;52.846;6.614;2022-07-21T01:37:28;19.00;99.90
57088;DHT22;42965;52.846;6.614;2022-07-21T01:39:55;19.10;99.90
57088;DHT22;42965;52.846;6.614;2022-07-21T01:42:40;19.00;99.90
57088;DHT22;42965;52.846;6.614;2022-07-21T01:45:07;19.00;99.90
57088;DHT22;42965;52.846;6.614;2022-07-21T01:47:33;19.00;99.90
57088;DHT22;42965;52.846;6.614;2022-07-21T01:50:00;18.90;99.90
57088;DHT22;42965;52.846;6.614;2022-07-21T01:52:26;18.90;99.90
57088;DHT22;42965;52.846;6.614;2022-07-21T01:54:53;18.90;99.90
57088;DHT22;42965;52.846;6.614;2022-07-21T01:57:19;18.80;99.90
57088;DHT22;42965;52.846;6.614;2022-07-21T01:59:45;18.80;99.90
57088;DHT22;42965;52.846;6.614;2022-07-21T02:02:12;18.70;99.90
57088;DHT22;42965;52.846;6.614;2022-07-21T02:04:38;18.70;99.90
57088;DHT22;42965;52.846;6.614;2022-07-21T02:07:04;18.70;99.90
57088;DHT22;42965;52.846;6.614;2022-07-21T02:09:31;18.70;99.90
57088;DHT22;42965;52.846;6.614;2022-07-21T02:11:58;18.70;99.90
57088;DHT22;42965;52.846;6.614;2022-07-21T02:14:24;18.70;99.90
57088;DHT22;42965;52.846;6.614;2022-07-21T02:16:50;18.80;99.90
57088;DHT22;42965;52.846;6.614;2022-07-21T02:19:16;18.80;99.90
57088;DHT22;42965;52.846;6.614;2022-07-21T02:21:42;18.80;99.90
57088;DHT22;42965;52.846;6.614;2022-07-21T02:24:12;18.80;99.90
57088;DHT22;42965;52.846;6.614;2022-07-21T02:26:38;18.80;99.90
57088;DHT22;42965;52.846;6.614;2022-07-21T02:29:04;18.80;99.90
57088;DHT22;42965;52.846;6.614;2022-07-21T02:31:31;18.70;99.90
57088;DHT22;42965;52.846;6.614;2022-07-21T02:33:58;18.80;99.90
57088;DHT22;42965;52.846;6.614;2022-07-21T02:36:23;18.70;99.90
57088;DHT22;42965;52.846;6.614;2022-07-21T02:38:50;18.70;99.90
57088;DHT22;42965;52.846;6.614;2022-07-21T02:41:16;18.70;99.90
57088;DHT22;42965;52.846;6.614;2022-07-21T02:43:43;18.70;99.90
57088;DHT22;42965;52.846;6.614;2022-07-21T02:46:09;18.70;99.90
57088;DHT22;42965;52.846;6.614;2022-07-21T02:48:35;18.70;99.90
57088;DHT22;42965;52.846;6.614;2022-07-21T02:51:01;18.70;99.90
57088;DHT22;42965;52.846;6.614;2022-07-21T02:53:27;18.70;99.90
57088;DHT22;42965;52.846;6.614;2022-07-21T02:55:53;18.70;99.90
57088;DHT22;42965;52.846;6.614;2022-07-21T02:58:25;18.70;99.90
57088;DHT22;42965;52.846;6.614;2022-07-21T03:01:04;18.70;99.90
57088;DHT22;42965;52.846;6.614;2022-07-21T03:03:35;18.70;99.90
57088;DHT22;42965;52.846;6.614;2022-07-21T03:06:02;18.60;99.90
57088;DHT22;42965;52.846;6.614;2022-07-21T03:08:32;18.60;99.90
57088;DHT22;42965;52.846;6.614;2022-07-21T03:10:59;18.60;99.90
57088;DHT22;42965;52.846;6.614;2022-07-21T03:13:25;18.60;99.90
57088;DHT22;42965;52.846;6.614;2022-07-21T03:15:51;18.60;99.90
57088;DHT22;42965;52.846;6.614;2022-07-21T03:18:17;18.60;99.90
57088;DHT22;42965;52.846;6.614;2022-07-21T03:20:44;18.50;99.90
57088;DHT22;42965;52.846;6.614;2022-07-21T03:23:10;18.50;99.90
57088;DHT22;42965;52.846;6.614;2022-07-21T03:25:36;18.50;99.90
57088;DHT22;42965;52.846;6.614;2022-07-21T03:28:03;18.60;99.90
57088;DHT22;42965;52.846;6.614;2022-07-21T03:30:29;18.50;99.90
57088;DHT22;42965;52.846;6.614;2022-07-21T03:32:56;18.60;99.90
57088;DHT22;42965;52.846;6.614;2022-07-21T03:35:23;18.50;99.90
57088;DHT22;42965;52.846;6.614;2022-07-21T03:37:57;18.60;99.90
57088;DHT22;42965;52.846;6.614;2022-07-21T03:40:26;18.60;99.90
57088;DHT22;42965;52.846;6.614;2022-07-21T03:42:55;18.60;99.90
57088;DHT22;42965;52.846;6.614;2022-07-21T03:45:22;18.60;99.90
57088;DHT22;42965;52.846;6.614;2022-07-21T03:47:48;18.60;99.90
57088;DHT22;42965;52.846;6.614;2022-07-21T03:50:14;18.60;99.90
57088;DHT22;42965;52.846;6.614;2022-07-21T03:52:46;18.60;99.90
57088;DHT22;42965;52.846;6.614;2022-07-21T03:55:16;18.60;99.90
57088;DHT22;42965;52.846;6.614;2022-07-21T03:57:46;18.60;99.90
57088;DHT22;42965;52.846;6.614;2022-07-21T04:00:22;18.60;99.90
57088;DHT22;42965;52.846;6.614;2022-07-21T04:02:48;18.60;99.90
57088;DHT22;42965;52.846;6.614;2022-07-21T04:05:15;18.60;99.90
57088;DHT22;42965;52.846;6.614;2022-07-21T04:07:44;18.70;99.90
57088;DHT22;42965;52.846;6.614;2022-07-21T04:10:12;18.70;99.90
57088;DHT22;42965;52.846;6.614;2022-07-21T04:12:38;18.70;99.90
57088;DHT22;42965;52.846;6.614;2022-07-21T04:15:06;18.80;99.90
57088;DHT22;42965;52.846;6.614;2022-07-21T04:17:33;18.70;99.90
57088;DHT22;42965;52.846;6.614;2022-07-21T04:20:00;18.80;99.90
57088;DHT22;42965;52.846;6.614;2022-07-21T04:22:26;18.70;99.90
57088;DHT22;42965;52.846;6.614;2022-07-21T04:24:52;18.70;99.90
57088;DHT22;42965;52.846;6.614;2022-07-21T04:27:18;18.70;99.90
57088;DHT22;42965;52.846;6.614;2022-07-21T04:29:44;18.70;99.90
57088;DHT22;42965;52.846;6.614;2022-07-21T04:32:15;18.80;99.90
57088;DHT22;42965;52.846;6.614;2022-07-21T04:34:41;18.80;99.90
57088;DHT22;42965;52.846;6.614;2022-07-21T04:37:07;18.80;99.90
57088;DHT22;42965;52.846;6.614;2022-07-21T04:39:33;18.80;99.90
57088;DHT22;42965;52.846;6.614;2022-07-21T04:41:59;18.70;99.90
57088;DHT22;42965;52.846;6.614;2022-07-21T04:44:26;18.80;99.90
57088;DHT22;42965;52.846;6.614;2022-07-21T04:46:52;18.80;99.90
57088;DHT22;42965;52.846;6.614;2022-07-21T04:49:18;18.80;99.90
57088;DHT22;42965;52.846;6.614;2022-07-21T04:51:44;18.80;99.90
57088;DHT22;42965;52.846;6.614;2022-07-21T04:54:10;18.80;99.90
57088;DHT22;42965;52.846;6.614;2022-07-21T04:56:46;18.80;99.90
57088;DHT22;42965;52.846;6.614;2022-07-21T04:59:12;18.80;99.90
57088;DHT22;42965;52.846;6.614;2022-07-21T05:01:39;18.80;99.90
57088;DHT22;42965;52.846;6.614;2022-07-21T05:04:06;18.80;99.90
57088;DHT22;42965;52.846;6.614;2022-07-21T05:06:33;18.90;99.90
57088;DHT22;42965;52.846;6.614;2022-07-21T05:09:00;18.90;99.90
57088;DHT22;42965;52.846;6.614;2022-07-21T05:11:26;18.90;99.90
57088;DHT22;42965;52.846;6.614;2022-07-21T05:13:52;18.90;99.90
57088;DHT22;42965;52.846;6.614;2022-07-21T05:16:18;18.90;99.90
57088;DHT22;42965;52.846;6.614;2022-07-21T05:18:45;18.90;99.90
57088;DHT22;42965;52.846;6.614;2022-07-21T05:21:11;19.00;99.90
57088;DHT22;42965;52.846;6.614;2022-07-21T05:23:37;19.00;99.90
57088;DHT22;42965;52.846;6.614;2022-07-21T05:26:03;19.00;99.90
57088;DHT22;42965;52.846;6.614;2022-07-21T05:28:30;19.10;99.90
57088;DHT22;42965;52.846;6.614;2022-07-21T05:30:57;19.10;99.90
57088;DHT22;42965;52.846;6.614;2022-07-21T05:33:23;19.20;99.90
57088;DHT22;42965;52.846;6.614;2022-07-21T05:35:49;19.20;99.90
57088;DHT22;42965;52.846;6.614;2022-07-21T05:38:15;19.20;99.90
57088;DHT22;42965;52.846;6.614;2022-07-21T05:40:41;19.30;99.90
57088;DHT22;42965;52.846;6.614;2022-07-21T05:43:07;19.40;99.90
57088;DHT22;42965;52.846;6.614;2022-07-21T05:45:34;19.50;99.90
57088;DHT22;42965;52.846;6.614;2022-07-21T05:48:01;19.60;99.90
57088;DHT22;42965;52.846;6.614;2022-07-21T05:50:27;19.80;99.90
57088;DHT22;42965;52.846;6.614;2022-07-21T05:52:53;19.90;99.90
57088;DHT22;42965;52.846;6.614;2022-07-21T05:55:19;20.10;99.90
57088;DHT22;42965;52.846;6.614;2022-07-21T05:57:46;20.40;99.90
57088;DHT22;42965;52.846;6.614;2022-07-21T06:00:12;20.70;99.90
57088;DHT22;42965;52.846;6.614;2022-07-21T06:02:38;20.70;99.90
57088;DHT22;42965;52.846;6.614;2022-07-21T06:05:04;20.80;99.90
57088;DHT22;42965;52.846;6.614;2022-07-21T06:07:33;20.80;99.90
57088;DHT22;42965;52.846;6.614;2022-07-21T06:09:59;20.90;99.90
57088;DHT22;42965;52.846;6.614;2022-07-21T06:12:27;20.90;99.90
57088;DHT22;42965;52.846;6.614;2022-07-21T06:14:53;20.90;99.90
57088;DHT22;42965;52.846;6.614;2022-07-21T06:17:21;20.80;99.90
57088;DHT22;42965;52.846;6.614;2022-07-21T06:19:48;20.60;99.90
57088;DHT22;42965;52.846;6.614;2022-07-21T06:22:14;20.60;99.90
57088;DHT22;42965;52.846;6.614;2022-07-21T06:24:40;20.50;99.90
57088;DHT22;42965;52.846;6.614;2022-07-21T06:27:09;20.40;99.90
57088;DHT22;42965;52.846;6.614;2022-07-21T06:29:35;20.30;99.90
57088;DHT22;42965;52.846;6.614;2022-07-21T06:32:01;20.30;99.90
57088;DHT22;42965;52.846;6.614;2022-07-21T06:34:27;20.20;99.90
57088;DHT22;42965;52.846;6.614;2022-07-21T06:36:53;20.10;99.90
57088;DHT22;42965;52.846;6.614;2022-07-21T06:39:19;20.00;99.90
57088;DHT22;42965;52.846;6.614;2022-07-21T06:41:46;20.00;99.90
57088;DHT22;42965;52.846;6.614;2022-07-21T06:44:12;19.90;99.90
57088;DHT22;42965;52.846;6.614;2022-07-21T06:46:39;19.80;99.90
57088;DHT22;42965;52.846;6.614;2022-07-21T06:49:05;19.80;99.90
57088;DHT22;42965;52.846;6.614;2022-07-21T06:51:31;19.80;99.90
57088;DHT22;42965;52.846;6.614;2022-07-21T06:53:57;19.80;99.90
57088;DHT22;42965;52.846;6.614;2022-07-21T06:56:23;19.90;99.90
57088;DHT22;42965;52.846;6.614;2022-07-21T06:58:49;19.90;99.90
57088;DHT22;42965;52.846;6.614;2022-07-21T07:01:15;20.00;99.90
57088;DHT22;42965;52.846;6.614;2022-07-21T07:03:44;20.00;99.90
57088;DHT22;42965;52.846;6.614;2022-07-21T07:06:11;20.00;99.90
57088;DHT22;42965;52.846;6.614;2022-07-21T07:08:38;20.00;99.90
57088;DHT22;42965;52.846;6.614;2022-07-21T07:11:05;20.20;99.90
57088;DHT22;42965;52.846;6.614;2022-07-21T07:13:32;20.20;99.90
57088;DHT22;42965;52.846;6.614;2022-07-21T07:15:59;20.30;99.90
57088;DHT22;42965;52.846;6.614;2022-07-21T07:18:26;20.10;99.90
57088;DHT22;42965;52.846;6.614;2022-07-21T07:20:52;20.20;99.90
57088;DHT22;42965;52.846;6.614;2022-07-21T07:23:18;20.20;99.90
57088;DHT22;42965;52.846;6.614;2022-07-21T07:25:44;20.20;99.90
57088;DHT22;42965;52.846;6.614;2022-07-21T07:28:11;20.30;99.90
57088;DHT22;42965;52.846;6.614;2022-07-21T07:30:37;20.50;99.90
57088;DHT22;42965;52.846;6.614;2022-07-21T07:33:03;20.70;99.90
57088;DHT22;42965;52.846;6.614;2022-07-21T07:35:29;20.80;99.90
57088;DHT22;42965;52.846;6.614;2022-07-21T07:37:55;20.90;99.90
57088;DHT22;42965;52.846;6.614;2022-07-21T07:40:23;20.90;99.90
57088;DHT22;42965;52.846;6.614;2022-07-21T07:42:49;20.90;99.90
57088;DHT22;42965;52.846;6.614;2022-07-21T07:45:16;20.90;99.90
57088;DHT22;42965;52.846;6.614;2022-07-21T07:47:46;21.00;99.90
57088;DHT22;42965;52.846;6.614;2022-07-21T07:50:15;21.00;99.90
57088;DHT22;42965;52.846;6.614;2022-07-21T07:52:46;21.10;99.90
57088;DHT22;42965;52.846;6.614;2022-07-21T07:55:26;21.20;99.90
57088;DHT22;42965;52.846;6.614;2022-07-21T08:01:35;22.20;99.90
57088;DHT22;42965;52.846;6.614;2022-07-21T08:04:01;23.00;99.90
57088;DHT22;42965;52.846;6.614;2022-07-21T08:06:42;23.70;99.90
57088;DHT22;42965;52.846;6.614;2022-07-21T08:13:39;24.10;99.90
57088;DHT22;42965;52.846;6.614;2022-07-21T08:16:05;24.40;99.90
57088;DHT22;42965;52.846;6.614;2022-07-21T08:18:34;25.10;99.90
57088;DHT22;42965;52.846;6.614;2022-07-21T08:21:00;25.50;99.90
57088;DHT22;42965;52.846;6.614;2022-07-21T08:23:32;25.90;99.90
57088;DHT22;42965;52.846;6.614;2022-07-21T08:26:02;26.00;99.90
57088;DHT22;42965;52.846;6.614;2022-07-21T08:28:49;26.00;99.90
57088;DHT22;42965;52.846;6.614;2022-07-21T08:31:38;26.00;99.90
57088;DHT22;42965;52.846;6.614;2022-07-21T08:35:12;26.10;99.90
57088;DHT22;42965;52.846;6.614;2022-07-21T08:37:58;26.70;99.90
57088;DHT22;42965;52.846;6.614;2022-07-21T08:40:37;26.90;99.90
57088;DHT22;42965;52.846;6.614;2022-07-21T08:43:05;26.60;99.90
57088;DHT22;42965;52.846;6.614;2022-07-21T08:45:32;26.70;99.90
57088;DHT22;42965;52.846;6.614;2022-07-21T08:48:01;25.90;99.90
57088;DHT22;42965;52.846;6.614;2022-07-21T08:50:30;25.60;99.90
57088;DHT22;42965;52.846;6.614;2022-07-21T08:52:57;25.10;99.90
57088;DHT22;42965;52.846;6.614;2022-07-21T08:55:35;25.20;99.90
57088;DHT22;42965;52.846;6.614;2022-07-21T08:58:08;25.90;99.90
57088;DHT22;42965;52.846;6.614;2022-07-21T09:00:40;26.30;99.90
57088;DHT22;42965;52.846;6.614;2022-07-21T09:03:20;26.20;99.90
57088;DHT22;42965;52.846;6.614;2022-07-21T09:06:21;26.20;99.90
57088;DHT22;42965;52.846;6.614;2022-07-21T09:08:52;26.80;99.90
57088;DHT22;42965;52.846;6.614;2022-07-21T09:11:27;26.60;99.90
57088;DHT22;42965;52.846;6.614;2022-07-21T09:14:09;26.40;99.90
57088;DHT22;42965;52.846;6.614;2022-07-21T09:16:43;26.00;99.90
57088;DHT22;42965;52.846;6.614;2022-07-21T09:19:25;25.70;99.90
57088;DHT22;42965;52.846;6.614;2022-07-21T09:21:54;25.30;99.90
57088;DHT22;42965;52.846;6.614;2022-07-21T09:24:24;24.90;99.90
57088;DHT22;42965;52.846;6.614;2022-07-21T09:29:49;24.30;99.90
57088;DHT22;42965;52.846;6.614;2022-07-21T09:35:07;24.10;99.90
57088;DHT22;42965;52.846;6.614;2022-07-21T09:37:37;24.20;99.90
57088;DHT22;42965;52.846;6.614;2022-07-21T09:40:14;24.40;99.90
57088;DHT22;42965;52.846;6.614;2022-07-21T09:42:51;24.50;99.90
57088;DHT22;42965;52.846;6.614;2022-07-21T09:45:18;24.10;99.90
57088;DHT22;42965;52.846;6.614;2022-07-21T09:47:46;23.80;99.90
57088;DHT22;42965;52.846;6.614;2022-07-21T09:50:14;23.70;99.90
57088;DHT22;42965;52.846;6.614;2022-07-21T09:52:42;23.60;99.90
57088;DHT22;42965;52.846;6.614;2022-07-21T09:55:14;23.50;99.90
57088;DHT22;42965;52.846;6.614;2022-07-21T09:57:41;23.60;99.90
57088;DHT22;42965;52.846;6.614;2022-07-21T10:00:11;23.60;99.90
57088;DHT22;42965;52.846;6.614;2022-07-21T10:02:38;23.20;99.90
57088;DHT22;42965;52.846;6.614;2022-07-21T10:05:08;22.80;99.90
57088;DHT22;42965;52.846;6.614;2022-07-21T10:07:46;22.60;99.90
57088;DHT22;42965;52.846;6.614;2022-07-21T10:10:13;22.30;99.90
57088;DHT22;42965;52.846;6.614;2022-07-21T10:12:40;22.10;99.90
57088;DHT22;42965;52.846;6.614;2022-07-21T10:15:06;21.90;99.90
57088;DHT22;42965;52.846;6.614;2022-07-21T10:17:33;21.90;99.90
57088;DHT22;42965;52.846;6.614;2022-07-21T10:25:17;21.70;99.90
57088;DHT22;42965;52.846;6.614;2022-07-21T10:28:19;21.80;99.90
57088;DHT22;42965;52.846;6.614;2022-07-21T10:30:50;21.90;99.90
57088;DHT22;42965;52.846;6.614;2022-07-21T10:33:19;22.00;99.90
57088;DHT22;42965;52.846;6.614;2022-07-21T10:35:46;22.00;99.90
57088;DHT22;42965;52.846;6.614;2022-07-21T10:38:27;22.00;99.90
57088;DHT22;42965;52.846;6.614;2022-07-21T10:40:54;22.20;99.90
57088;DHT22;42965;52.846;6.614;2022-07-21T10:45:51;22.20;99.90
57088;DHT22;42965;52.846;6.614;2022-07-21T10:51:16;22.50;99.90
57088;DHT22;42965;52.846;6.614;2022-07-21T10:53:43;22.60;99.90
57088;DHT22;42965;52.846;6.614;2022-07-21T10:56:29;22.60;99.90
57088;DHT22;42965;52.846;6.614;2022-07-21T10:59:00;22.90;99.90
57088;DHT22;42965;52.846;6.614;2022-07-21T11:01:26;23.00;99.90
57088;DHT22;42965;52.846;6.614;2022-07-21T11:04:22;23.00;99.90
57088;DHT22;42965;52.846;6.614;2022-07-21T11:06:48;23.10;99.90
57088;DHT22;42965;52.846;6.614;2022-07-21T11:09:17;23.20;99.90
57088;DHT22;42965;52.846;6.614;2022-07-21T11:12:04;23.20;99.90
57088;DHT22;42965;52.846;6.614;2022-07-21T11:14:41;23.10;99.90
57088;DHT22;42965;52.846;6.614;2022-07-21T11:17:24;22.90;99.90
57088;DHT22;42965;52.846;6.614;2022-07-21T11:19:50;22.90;99.90
57088;DHT22;42965;52.846;6.614;2022-07-21T11:22:19;22.60;99.90
57088;DHT22;42965;52.846;6.614;2022-07-21T11:24:56;22.10;99.90
57088;DHT22;42965;52.846;6.614;2022-07-21T11:27:24;21.80;99.90
57088;DHT22;42965;52.846;6.614;2022-07-21T11:29:57;21.60;99.90
57088;DHT22;42965;52.846;6.614;2022-07-21T11:32:24;21.30;99.90
57088;DHT22;42965;52.846;6.614;2022-07-21T11:34:58;21.00;99.90
57088;DHT22;42965;52.846;6.614;2022-07-21T11:37:31;20.70;99.90
57088;DHT22;42965;52.846;6.614;2022-07-21T11:39:58;20.50;99.90
57088;DHT22;42965;52.846;6.614;2022-07-21T11:42:26;20.50;99.90
57088;DHT22;42965;52.846;6.614;2022-07-21T11:44:53;20.60;99.90
57088;DHT22;42965;52.846;6.614;2022-07-21T11:47:23;20.50;99.90
57088;DHT22;42965;52.846;6.614;2022-07-21T11:49:56;20.60;99.90
57088;DHT22;42965;52.846;6.614;2022-07-21T11:52:31;20.80;99.90
57088;DHT22;42965;52.846;6.614;2022-07-21T11:54:59;21.00;99.90
57088;DHT22;42965;52.846;6.614;2022-07-21T11:57:29;21.10;99.90
57088;DHT22;42965;52.846;6.614;2022-07-21T11:59:59;21.30;99.90
57088;DHT22;42965;52.846;6.614;2022-07-21T12:02:30;21.40;99.90
57088;DHT22;42965;52.846;6.614;2022-07-21T12:04:58;21.50;99.90
57088;DHT22;42965;52.846;6.614;2022-07-21T12:07:40;21.60;99.90
57088;DHT22;42965;52.846;6.614;2022-07-21T12:10:25;21.60;99.90
57088;DHT22;42965;52.846;6.614;2022-07-21T12:13:04;21.70;99.90
57088;DHT22;42965;52.846;6.614;2022-07-21T12:15:37;21.80;99.90
57088;DHT22;42965;52.846;6.614;2022-07-21T12:18:16;21.90;99.90
57088;DHT22;42965;52.846;6.614;2022-07-21T12:20:46;22.10;99.90
57088;DHT22;42965;52.846;6.614;2022-07-21T12:23:28;22.20;99.90
57088;DHT22;42965;52.846;6.614;2022-07-21T12:25:56;22.30;99.90
57088;DHT22;42965;52.846;6.614;2022-07-21T12:29:01;22.20;99.90
57088;DHT22;42965;52.846;6.614;2022-07-21T12:31:28;22.10;99.90
57088;DHT22;42965;52.846;6.614;2022-07-21T12:33:57;21.90;99.90
57088;DHT22;42965;52.846;6.614;2022-07-21T12:36:36;21.90;99.90
57088;DHT22;42965;52.846;6.614;2022-07-21T12:39:24;21.80;99.90
57088;DHT22;42965;52.846;6.614;2022-07-21T12:42:11;21.50;99.90
57088;DHT22;42965;52.846;6.614;2022-07-21T12:44:52;21.40;99.90
57088;DHT22;42965;52.846;6.614;2022-07-21T12:47:20;21.60;99.90
57088;DHT22;42965;52.846;6.614;2022-07-21T12:50:14;21.70;99.90
57088;DHT22;42965;52.846;6.614;2022-07-21T12:52:40;22.00;99.90
57088;DHT22;42965;52.846;6.614;2022-07-21T12:55:07;22.00;99.90
57088;DHT22;42965;52.846;6.614;2022-07-21T12:57:33;21.80;99.90
57088;DHT22;42965;52.846;6.614;2022-07-21T13:00:00;21.70;99.90
57088;DHT22;42965;52.846;6.614;2022-07-21T13:02:27;21.60;99.90
57088;DHT22;42965;52.846;6.614;2022-07-21T13:04:55;21.50;99.90
57088;DHT22;42965;52.846;6.614;2022-07-21T13:07:21;21.50;99.90
57088;DHT22;42965;52.846;6.614;2022-07-21T13:09:47;21.50;99.90
57088;DHT22;42965;52.846;6.614;2022-07-21T13:12:14;21.40;99.90
57088;DHT22;42965;52.846;6.614;2022-07-21T13:14:41;21.30;99.90
57088;DHT22;42965;52.846;6.614;2022-07-21T13:17:08;21.40;99.90
57088;DHT22;42965;52.846;6.614;2022-07-21T13:19:34;21.40;99.90
57088;DHT22;42965;52.846;6.614;2022-07-21T13:22:04;21.40;99.90
57088;DHT22;42965;52.846;6.614;2022-07-21T13:24:30;21.60;99.90
57088;DHT22;42965;52.846;6.614;2022-07-21T13:26:57;21.50;99.90
57088;DHT22;42965;52.846;6.614;2022-07-21T13:29:23;21.70;99.90
57088;DHT22;42965;52.846;6.614;2022-07-21T13:31:49;21.70;99.90
57088;DHT22;42965;52.846;6.614;2022-07-21T13:34:15;21.80;99.90
57088;DHT22;42965;52.846;6.614;2022-07-21T13:36:41;22.10;99.90
57088;DHT22;42965;52.846;6.614;2022-07-21T13:39:07;22.10;99.90
57088;DHT22;42965;52.846;6.614;2022-07-21T13:41:34;22.30;99.90
57088;DHT22;42965;52.846;6.614;2022-07-21T13:44:00;22.40;99.90
57088;DHT22;42965;52.846;6.614;2022-07-21T13:46:27;22.30;99.90
57088;DHT22;42965;52.846;6.614;2022-07-21T13:48:53;22.20;99.90
57088;DHT22;42965;52.846;6.614;2022-07-21T13:51:20;22.10;99.90
57088;DHT22;42965;52.846;6.614;2022-07-21T13:53:48;22.10;99.90
57088;DHT22;42965;52.846;6.614;2022-07-21T13:56:15;22.10;99.90
57088;DHT22;42965;52.846;6.614;2022-07-21T13:58:43;22.50;99.90
57088;DHT22;42965;52.846;6.614;2022-07-21T14:01:11;22.50;99.90
57088;DHT22;42965;52.846;6.614;2022-07-21T14:03:37;22.40;99.90
57088;DHT22;42965;52.846;6.614;2022-07-21T14:06:06;22.20;99.90
57088;DHT22;42965;52.846;6.614;2022-07-21T14:08:33;22.20;99.90
57088;DHT22;42965;52.846;6.614;2022-07-21T14:11:01;22.20;99.90
57088;DHT22;42965;52.846;6.614;2022-07-21T14:13:27;22.00;99.90
57088;DHT22;42965;52.846;6.614;2022-07-21T14:15:56;21.90;99.90
57088;DHT22;42965;52.846;6.614;2022-07-21T14:18:22;21.90;99.90
57088;DHT22;42965;52.846;6.614;2022-07-21T14:20:49;21.80;99.90
57088;DHT22;42965;52.846;6.614;2022-07-21T14:23:22;21.70;99.90
57088;DHT22;42965;52.846;6.614;2022-07-21T14:25:49;21.60;99.90
57088;DHT22;42965;52.846;6.614;2022-07-21T14:28:16;21.50;99.90
57088;DHT22;42965;52.846;6.614;2022-07-21T14:30:42;21.50;99.90
57088;DHT22;42965;52.846;6.614;2022-07-21T14:33:09;21.60;99.90
57088;DHT22;42965;52.846;6.614;2022-07-21T14:35:37;21.90;99.90
57088;DHT22;42965;52.846;6.614;2022-07-21T14:38:06;22.30;99.90
57088;DHT22;42965;52.846;6.614;2022-07-21T14:40:32;22.50;99.90
57088;DHT22;42965;52.846;6.614;2022-07-21T14:42:58;22.60;99.90
57088;DHT22;42965;52.846;6.614;2022-07-21T14:45:25;22.50;99.90
57088;DHT22;42965;52.846;6.614;2022-07-21T14:47:53;22.40;99.90
57088;DHT22;42965;52.846;6.614;2022-07-21T14:50:20;22.40;99.90
57088;DHT22;42965;52.846;6.614;2022-07-21T14:52:46;22.40;99.90
57088;DHT22;42965;52.846;6.614;2022-07-21T14:55:13;22.40;99.90
57088;DHT22;42965;52.846;6.614;2022-07-21T14:57:39;22.40;99.90
57088;DHT22;42965;52.846;6.614;2022-07-21T15:00:09;22.20;99.90
57088;DHT22;42965;52.846;6.614;2022-07-21T15:02:36;22.10;99.90
57088;DHT22;42965;52.846;6.614;2022-07-21T15:05:03;22.10;99.90
57088;DHT22;42965;52.846;6.614;2022-07-21T15:07:29;21.90;99.90
57088;DHT22;42965;52.846;6.614;2022-07-21T15:09:55;22.00;99.90
57088;DHT22;42965;52.846;6.614;2022-07-21T15:12:24;22.20;99.90
57088;DHT22;42965;52.846;6.614;2022-07-21T15:14:50;22.00;99.90
57088;DHT22;42965;52.846;6.614;2022-07-21T15:17:16;22.10;99.90
57088;DHT22;42965;52.846;6.614;2022-07-21T15:19:44;22.10;99.90
57088;DHT22;42965;52.846;6.614;2022-07-21T15:22:10;22.20;99.90
57088;DHT22;42965;52.846;6.614;2022-07-21T15:24:36;22.10;99.90
57088;DHT22;42965;52.846;6.614;2022-07-21T15:27:03;22.00;99.90
57088;DHT22;42965;52.846;6.614;2022-07-21T15:29:29;22.00;99.90
57088;DHT22;42965;52.846;6.614;2022-07-21T15:31:55;21.80;99.90
57088;DHT22;42965;52.846;6.614;2022-07-21T15:34:22;21.70;99.90
57088;DHT22;42965;52.846;6.614;2022-07-21T15:36:48;21.60;99.90
57088;DHT22;42965;52.846;6.614;2022-07-21T15:39:14;21.70;99.90
57088;DHT22;42965;52.846;6.614;2022-07-21T15:41:40;21.80;99.90
57088;DHT22;42965;52.846;6.614;2022-07-21T15:44:09;21.90;99.90
57088;DHT22;42965;52.846;6.614;2022-07-21T15:46:35;21.90;99.90
57088;DHT22;42965;52.846;6.614;2022-07-21T15:49:01;21.90;99.90
57088;DHT22;42965;52.846;6.614;2022-07-21T15:51:27;22.00;99.90
57088;DHT22;42965;52.846;6.614;2022-07-21T15:53:54;21.90;99.90
57088;DHT22;42965;52.846;6.614;2022-07-21T15:56:20;21.80;99.90
57088;DHT22;42965;52.846;6.614;2022-07-21T15:58:46;21.80;99.90
57088;DHT22;42965;52.846;6.614;2022-07-21T16:01:30;21.90;99.90
57088;DHT22;42965;52.846;6.614;2022-07-21T16:03:57;21.90;99.90
57088;DHT22;42965;52.846;6.614;2022-07-21T16:06:23;21.90;99.90